Time;durP1;ratioP1;P1;durP2;ratioP2;P2;SDS_P1;SDS_P2;PMS_P1;PMS_P2;Temp;Humidity;BMP_temperature;BMP_pressure;BME280_temperature;BME280_humidity;BME280_pressure;Samples;Min_cycle;Max_cycle;Signal;HPM_P1;HPM_P2
2023/04/19 00:02:19;;;;;;;11.25;5.10;;;;;;;;;;6305322;22;20003;-78
2023/04/19 00:04:46;;;;;;;14.73;5.63;;;;;;;;;;6304347;22;19995;-78
2023/04/19 00:07:12;;;;;;;8.35;4.85;;;;;;;;;;6300788;22;19995;-78
2023/04/19 00:09:39;;;;;;;9.05;5.13;;;;;;;;;;6300765;22;19995;-78
2023/04/19 00:12:05;;;;;;;10.27;6.50;;;;;;;;;;6302031;22;20281;-78
2023/04/19 00:14:31;;;;;;;12.85;7.00;;;;;;;;;;6301910;22;20006;-78
2023/04/19 00:16:57;;;;;;;11.70;5.30;;;;;;;;;;6302888;22;20007;-79
2023/04/19 00:19:23;;;;;;;9.75;5.88;;;;;;;;;;6302003;22;20727;-79
2023/04/19 00:21:49;;;;;;;10.07;5.78;;;;;;;;;;6302904;22;20326;-79
2023/04/19 00:24:16;;;;;;;13.35;5.97;;;;;;;;;;6300884;22;20676;-79
2023/04/19 00:26:42;;;;;;;9.43;6.47;;;;;;;;;;6301042;22;20011;-78
2023/04/19 00:29:08;;;;;;;19.52;6.82;;;;;;;;;;6301874;22;20014;-78
2023/04/19 00:31:34;;;;;;;13.15;5.97;;;;;;;;;;6303922;22;20014;-78
2023/04/19 00:34:00;;;;;;;10.02;5.57;;;;;;;;;;6305060;22;19999;-77
2023/04/19 00:36:26;;;;;;;12.63;5.93;;;;;;;;;;6301121;22;20038;-77
2023/04/19 00:38:53;;;;;;;13.63;6.57;;;;;;;;;;6304570;22;20003;-77
2023/04/19 00:41:19;;;;;;;12.30;6.30;;;;;;;;;;6303726;22;20014;-77
2023/04/19 00:43:45;;;;;;;13.65;6.18;;;;;;;;;;6304179;22;20007;-77
2023/04/19 00:46:11;;;;;;;14.80;5.68;;;;;;;;;;6303958;22;20007;-77
2023/04/19 00:48:37;;;;;;;12.73;5.88;;;;;;;;;;6305069;22;20035;-78
2023/04/19 00:51:04;;;;;;;15.07;5.50;;;;;;;;;;6302596;22;20022;-77
2023/04/19 00:53:30;;;;;;;13.50;6.32;;;;;;;;;;6303051;22;20298;-78
2023/04/19 00:55:57;;;;;;;14.10;6.45;;;;;;;;;;6301095;22;20026;-76
2023/04/19 00:58:23;;;;;;;15.43;5.78;;;;;;;;;;6302566;22;19999;-77
2023/04/19 01:00:49;;;;;;;13.77;5.90;;;;;;;;;;6303636;22;20003;-78
2023/04/19 01:03:15;;;;;;;10.02;6.00;;;;;;;;;;6301375;22;20018;-77
2023/04/19 01:05:41;;;;;;;10.48;5.10;;;;;;;;;;6301907;22;20007;-77
2023/04/19 01:08:09;;;;;;;15.32;6.65;;;;;;;;;;6301313;22;20011;-77
2023/04/19 01:10:35;;;;;;;14.57;6.05;;;;;;;;;;6301490;22;20533;-78
2023/04/19 01:13:02;;;;;;;6.20;4.35;;;;;;;;;;6300067;22;20000;-77
2023/04/19 01:15:28;;;;;;;12.52;5.25;;;;;;;;;;6302121;22;20345;-78
2023/04/19 01:17:55;;;;;;;9.45;5.25;;;;;;;;;;6301746;22;20003;-77
2023/04/19 01:20:21;;;;;;;12.32;5.03;;;;;;;;;;6302934;22;20003;-77
2023/04/19 01:22:47;;;;;;;13.27;5.80;;;;;;;;;;6303435;22;20026;-77
2023/04/19 01:25:14;;;;;;;13.48;6.97;;;;;;;;;;6301189;22;20030;-77
2023/04/19 01:27:40;;;;;;;11.82;5.57;;;;;;;;;;6301298;22;20007;-77
2023/04/19 01:30:06;;;;;;;8.20;5.03;;;;;;;;;;6302664;22;20004;-77
2023/04/19 01:32:32;;;;;;;12.88;6.03;;;;;;;;;;6302810;22;20037;-78
2023/04/19 01:34:59;;;;;;;11.98;5.93;;;;;;;;;;6300527;22;20006;-78
2023/04/19 01:37:25;;;;;;;9.02;5.95;;;;;;;;;;6300925;22;20003;-76
2023/04/19 01:39:51;;;;;;;12.07;5.90;;;;;;;;;;6302380;22;19999;-77
2023/04/19 01:42:17;;;;;;;13.32;5.90;;;;;;;;;;6301954;22;19999;-78
2023/04/19 01:44:43;;;;;;;9.05;6.22;;;;;;;;;;6299875;22;20003;-78
2023/04/19 01:47:09;;;;;;;10.45;5.40;;;;;;;;;;6301066;22;20004;-78
2023/04/19 01:49:35;;;;;;;8.07;4.90;;;;;;;;;;6301307;22;19999;-77
2023/04/19 01:52:02;;;;;;;12.70;5.85;;;;;;;;;;6300657;22;20003;-77
2023/04/19 01:54:28;;;;;;;13.15;6.47;;;;;;;;;;6303580;22;20017;-78
2023/04/19 01:56:54;;;;;;;14.88;6.68;;;;;;;;;;6333927;22;20410;-77
2023/04/19 01:59:20;;;;;;;13.10;6.03;;;;;;;;;;6331482;22;20006;-77
2023/04/19 02:01:46;;;;;;;15.38;6.88;;;;;;;;;;6334761;22;20002;-76
2023/04/19 02:04:12;;;;;;;13.45;6.80;;;;;;;;;;6333990;22;20018;-77
2023/04/19 02:06:38;;;;;;;13.63;5.93;;;;;;;;;;6332846;22;20002;-77
2023/04/19 02:09:04;;;;;;;11.10;5.85;;;;;;;;;;6333686;22;20007;-77
2023/04/19 02:11:31;;;;;;;11.68;6.35;;;;;;;;;;6305456;22;20082;-77
2023/04/19 02:13:57;;;;;;;9.93;5.63;;;;;;;;;;6331814;22;20003;-78
2023/04/19 02:16:23;;;;;;;15.60;5.88;;;;;;;;;;6305084;22;20017;-77
2023/04/19 02:18:49;;;;;;;15.48;8.00;;;;;;;;;;6333139;22;20070;-76
2023/04/19 02:21:15;;;;;;;14.18;6.32;;;;;;;;;;6304747;22;20328;-76
2023/04/19 02:23:41;;;;;;;12.00;5.88;;;;;;;;;;6305446;22;20074;-77
2023/04/19 02:26:07;;;;;;;12.85;6.07;;;;;;;;;;6302681;22;20395;-77
2023/04/19 02:28:34;;;;;;;11.02;6.15;;;;;;;;;;6305638;22;20030;-77
2023/04/19 02:31:03;;;;;;;9.52;5.20;;;;;;;;;;6333765;22;20064;-77
2023/04/19 02:33:29;;;;;;;11.18;6.68;;;;;;;;;;6333590;22;20332;-77
2023/04/19 02:35:55;;;;;;;13.07;6.43;;;;;;;;;;6305464;22;20060;-76
2023/04/19 02:38:21;;;;;;;13.27;6.78;;;;;;;;;;6305853;22;20007;-77
2023/04/19 02:40:48;;;;;;;9.13;6.03;;;;;;;;;;6304584;22;20013;-78
2023/04/19 02:43:14;;;;;;;13.13;6.55;;;;;;;;;;6306002;22;20110;-78
2023/04/19 02:45:40;;;;;;;10.95;6.55;;;;;;;;;;6333137;22;20011;-77
2023/04/19 02:48:06;;;;;;;11.35;5.78;;;;;;;;;;6333411;22;20006;-77
2023/04/19 02:50:32;;;;;;;10.50;6.57;;;;;;;;;;6304288;22;20469;-77
2023/04/19 02:52:58;;;;;;;10.95;6.50;;;;;;;;;;6332323;22;20007;-77
2023/04/19 02:55:25;;;;;;;9.95;6.10;;;;;;;;;;6329529;22;20014;-78
2023/04/19 02:57:51;;;;;;;11.18;7.28;;;;;;;;;;6304418;22;20090;-76
2023/04/19 03:00:17;;;;;;;10.68;7.05;;;;;;;;;;6333338;22;20002;-77
2023/04/19 03:02:43;;;;;;;11.15;5.88;;;;;;;;;;6305056;22;20011;-77
2023/04/19 03:05:10;;;;;;;9.57;6.68;;;;;;;;;;6331406;22;20431;-78
2023/04/19 03:07:36;;;;;;;11.52;6.15;;;;;;;;;;6330658;22;20010;-77
2023/04/19 03:10:02;;;;;;;11.85;7.00;;;;;;;;;;6332525;22;20006;-77
2023/04/19 03:12:28;;;;;;;15.00;8.20;;;;;;;;;;6304066;22;20007;-78
2023/04/19 03:14:55;;;;;;;15.23;7.03;;;;;;;;;;6305323;22;20003;-77
2023/04/19 03:17:21;;;;;;;14.80;7.22;;;;;;;;;;6332225;22;19997;-77
2023/04/19 03:19:47;;;;;;;11.75;6.50;;;;;;;;;;6332128;22;19998;-77
2023/04/19 03:22:13;;;;;;;14.88;7.45;;;;;;;;;;6332899;22;20006;-77
2023/04/19 03:24:39;;;;;;;17.02;8.50;;;;;;;;;;6333579;22;20298;-78
2023/04/19 03:27:05;;;;;;;16.65;7.70;;;;;;;;;;6304063;22;20006;-77
2023/04/19 03:29:31;;;;;;;14.45;7.38;;;;;;;;;;6332405;22;20051;-77
2023/04/19 03:31:57;;;;;;;11.75;7.88;;;;;;;;;;6302560;22;20118;-77
2023/04/19 03:34:23;;;;;;;11.40;8.38;;;;;;;;;;6332470;22;20007;-76
2023/04/19 03:36:49;;;;;;;13.00;8.63;;;;;;;;;;6332626;22;20003;-77
2023/04/19 03:39:16;;;;;;;11.95;8.55;;;;;;;;;;6304770;22;20033;-77
2023/04/19 03:41:42;;;;;;;12.52;7.90;;;;;;;;;;6332576;22;20373;-77
2023/04/19 03:44:08;;;;;;;16.23;8.57;;;;;;;;;;6332731;22;20006;-77
2023/04/19 03:46:34;;;;;;;14.98;9.30;;;;;;;;;;6332995;22;20470;-77
2023/04/19 03:49:00;;;;;;;18.23;9.45;;;;;;;;;;6303884;22;20021;-77
2023/04/19 03:51:26;;;;;;;17.08;9.00;;;;;;;;;;6304827;22;20007;-77
2023/04/19 03:53:52;;;;;;;19.30;9.77;;;;;;;;;;6302571;22;20395;-77
2023/04/19 03:56:19;;;;;;;16.85;9.32;;;;;;;;;;6304567;22;20068;-78
2023/04/19 03:58:45;;;;;;;14.88;8.93;;;;;;;;;;6301991;22;20033;-77
2023/04/19 04:01:18;;;;;;;18.20;10.05;;;;;;;;;;6303784;22;20049;-77
2023/04/19 04:03:45;;;;;;;17.73;9.75;;;;;;;;;;6331944;22;20052;-77
2023/04/19 04:06:11;;;;;;;17.73;8.65;;;;;;;;;;6333003;22;20290;-76
2023/04/19 04:08:37;;;;;;;14.73;10.32;;;;;;;;;;6304473;22;20003;-76
2023/04/19 04:11:03;;;;;;;12.93;9.30;;;;;;;;;;6305541;22;20010;-77
2023/04/19 04:13:29;;;;;;;19.98;9.70;;;;;;;;;;6302632;22;20114;-76
2023/04/19 04:15:55;;;;;;;19.38;10.10;;;;;;;;;;6331482;22;20023;-77
2023/04/19 04:18:22;;;;;;;16.30;10.23;;;;;;;;;;6332282;22;19998;-77
2023/04/19 04:20:48;;;;;;;17.38;9.00;;;;;;;;;;6332614;22;20002;-77
2023/04/19 04:23:15;;;;;;;13.95;9.00;;;;;;;;;;6331367;22;20033;-77
2023/04/19 04:25:41;;;;;;;13.48;8.90;;;;;;;;;;6304428;22;20007;-77
2023/04/19 04:28:07;;;;;;;23.25;9.40;;;;;;;;;;6304448;22;20089;-77
2023/04/19 04:30:34;;;;;;;13.63;8.70;;;;;;;;;;6330801;22;20096;-77
2023/04/19 04:33:01;;;;;;;13.35;7.72;;;;;;;;;;6304316;22;20432;-77
2023/04/19 04:35:28;;;;;;;15.68;9.23;;;;;;;;;;6303463;22;19999;-78
2023/04/19 04:37:55;;;;;;;17.60;8.15;;;;;;;;;;6332926;22;20413;-77
2023/04/19 04:40:21;;;;;;;12.23;8.52;;;;;;;;;;6330206;22;20006;-78
2023/04/19 04:42:48;;;;;;;15.48;8.93;;;;;;;;;;6331509;22;19999;-77
2023/04/19 04:45:17;;;;;;;11.95;7.95;;;;;;;;;;6303736;22;20033;-78
2023/04/19 04:47:45;;;;;;;15.50;8.88;;;;;;;;;;6305215;22;20063;-77
2023/04/19 04:50:11;;;;;;;17.25;8.75;;;;;;;;;;6333715;22;20007;-76
2023/04/19 04:52:37;;;;;;;14.20;8.68;;;;;;;;;;6305559;22;20029;-77
2023/04/19 04:55:03;;;;;;;16.60;10.18;;;;;;;;;;6300560;22;20015;-77
2023/04/19 04:57:29;;;;;;;14.10;9.30;;;;;;;;;;6300528;22;20341;-77
2023/04/19 04:59:55;;;;;;;21.35;10.77;;;;;;;;;;6302475;22;20126;-77
2023/04/19 05:02:22;;;;;;;12.43;9.40;;;;;;;;;;6302162;22;20344;-79
2023/04/19 05:04:49;;;;;;;16.48;9.85;;;;;;;;;;6303346;22;20003;-79
2023/04/19 05:07:15;;;;;;;14.02;8.75;;;;;;;;;;6303465;22;20003;-77
2023/04/19 05:09:41;;;;;;;17.73;9.88;;;;;;;;;;6301323;22;20057;-77
2023/04/19 05:12:07;;;;;;;18.25;10.10;;;;;;;;;;6303585;22;20043;-76
2023/04/19 05:14:33;;;;;;;15.52;10.38;;;;;;;;;;6300766;22;20012;-77
2023/04/19 05:16:59;;;;;;;19.75;9.68;;;;;;;;;;6302435;22;20148;-76
2023/04/19 05:19:25;;;;;;;13.75;9.75;;;;;;;;;;6302166;22;20010;-77
2023/04/19 05:21:51;;;;;;;15.90;10.18;;;;;;;;;;6304022;22;20103;-77
2023/04/19 05:24:17;;;;;;;15.93;9.20;;;;;;;;;;6300225;22;20011;-77
2023/04/19 05:26:44;;;;;;;19.05;9.98;;;;;;;;;;6300413;22;20066;-77
2023/04/19 05:29:10;;;;;;;15.05;9.25;;;;;;;;;;6300324;22;20011;-77
2023/04/19 05:31:36;;;;;;;20.52;10.20;;;;;;;;;;6301088;22;20007;-77
2023/04/19 05:34:02;;;;;;;18.42;9.65;;;;;;;;;;6301325;22;20011;-77
2023/04/19 05:36:28;;;;;;;14.60;9.73;;;;;;;;;;6300549;22;20011;-77
2023/04/19 05:38:55;;;;;;;16.92;9.90;;;;;;;;;;6301028;22;20007;-76
2023/04/19 05:41:21;;;;;;;17.23;9.60;;;;;;;;;;6303205;22;20000;-78
2023/04/19 05:43:47;;;;;;;18.38;10.10;;;;;;;;;;6303177;22;20007;-77
2023/04/19 05:46:13;;;;;;;15.95;8.77;;;;;;;;;;6302561;22;20007;-76
2023/04/19 05:48:39;;;;;;;19.13;9.65;;;;;;;;;;6301590;22;20010;-77
2023/04/19 05:51:05;;;;;;;16.17;9.07;;;;;;;;;;6302212;22;20007;-77
2023/04/19 05:53:31;;;;;;;16.60;9.43;;;;;;;;;;6300565;22;20006;-78
2023/04/19 05:55:57;;;;;;;16.02;9.85;;;;;;;;;;6322094;22;20011;-77
2023/04/19 05:58:24;;;;;;;16.17;9.13;;;;;;;;;;6333117;22;19994;-77
2023/04/19 06:00:51;;;;;;;15.45;9.85;;;;;;;;;;6305201;22;20060;-77
2023/04/19 06:03:17;;;;;;;17.48;9.00;;;;;;;;;;6331795;22;20006;-79
2023/04/19 06:05:43;;;;;;;20.88;10.65;;;;;;;;;;6306442;22;20041;-77
2023/04/19 06:08:10;;;;;;;11.73;9.05;;;;;;;;;;6306549;22;20007;-77
2023/04/19 06:10:36;;;;;;;15.18;9.43;;;;;;;;;;6305452;22;20017;-76
2023/04/19 06:13:03;;;;;;;17.15;9.52;;;;;;;;;;6333717;22;20064;-78
2023/04/19 06:15:34;;;;;;;19.10;9.18;;;;;;;;;;6333588;22;20044;-80
2023/04/19 06:18:00;;;;;;;21.05;8.40;;;;;;;;;;6306134;22;20018;-79
2023/04/19 06:20:26;;;;;;;19.45;8.52;;;;;;;;;;6306646;22;20085;-77
2023/04/19 06:22:52;;;;;;;14.85;8.48;;;;;;;;;;6303767;22;20011;-77
2023/04/19 06:25:19;;;;;;;16.42;8.60;;;;;;;;;;6332494;22;20063;-78
2023/04/19 06:27:45;;;;;;;18.25;8.40;;;;;;;;;;6333194;22;20672;-77
2023/04/19 06:30:11;;;;;;;17.55;8.63;;;;;;;;;;6333727;22;20021;-78
2023/04/19 06:32:37;;;;;;;12.55;8.18;;;;;;;;;;6303939;22;20046;-78
2023/04/19 06:35:04;;;;;;;16.98;8.45;;;;;;;;;;6332092;22;20483;-77
2023/04/19 06:37:32;;;;;;;13.75;8.45;;;;;;;;;;6332447;22;19999;-77
2023/04/19 06:39:59;;;;;;;14.32;8.27;;;;;;;;;;6331741;22;20451;-78
2023/04/19 06:42:26;;;;;;;12.27;7.88;;;;;;;;;;6333885;22;20427;-78
2023/04/19 06:44:52;;;;;;;15.50;7.72;;;;;;;;;;6332250;22;20078;-78
2023/04/19 06:47:18;;;;;;;19.15;8.98;;;;;;;;;;6333107;22;19998;-78
2023/04/19 06:49:44;;;;;;;12.25;8.13;;;;;;;;;;6305083;22;20322;-76
2023/04/19 06:52:11;;;;;;;12.23;7.85;;;;;;;;;;6333726;22;20403;-77
2023/04/19 06:54:37;;;;;;;15.60;8.23;;;;;;;;;;6303947;22;19999;-76
2023/04/19 06:57:03;;;;;;;14.88;8.73;;;;;;;;;;6306727;22;20010;-76
2023/04/19 06:59:31;;;;;;;14.60;7.97;;;;;;;;;;6332378;22;20052;-77
2023/04/19 07:01:57;;;;;;;16.67;7.60;;;;;;;;;;6304173;22;20335;-77
2023/04/19 07:04:23;;;;;;;24.77;8.93;;;;;;;;;;6332603;22;20468;-78
2023/04/19 07:06:49;;;;;;;10.43;7.60;;;;;;;;;;6332948;22;20410;-77
2023/04/19 07:09:16;;;;;;;31.83;8.48;;;;;;;;;;6332984;22;20293;-78
2023/04/19 07:11:42;;;;;;;12.50;8.73;;;;;;;;;;6332380;22;20002;-78
2023/04/19 07:14:08;;;;;;;16.63;7.60;;;;;;;;;;6305125;22;20428;-77
2023/04/19 07:16:34;;;;;;;12.48;7.65;;;;;;;;;;6305792;22;20442;-78
2023/04/19 07:19:00;;;;;;;14.68;7.45;;;;;;;;;;6332929;22;19999;-77
2023/04/19 07:21:31;;;;;;;16.52;8.57;;;;;;;;;;6303110;22;20006;-78
2023/04/19 07:23:57;;;;;;;15.25;7.95;;;;;;;;;;6305465;22;20344;-77
2023/04/19 07:26:23;;;;;;;19.13;8.63;;;;;;;;;;6332597;22;20002;-77
2023/04/19 07:28:50;;;;;;;13.02;7.53;;;;;;;;;;6304783;22;20089;-77
2023/04/19 07:31:16;;;;;;;15.00;7.95;;;;;;;;;;6333848;22;20007;-77
2023/04/19 07:33:43;;;;;;;15.50;7.57;;;;;;;;;;6302725;22;20042;-77
2023/04/19 07:36:09;;;;;;;12.27;6.97;;;;;;;;;;6306461;22;20336;-77
2023/04/19 07:38:35;;;;;;;15.63;7.80;;;;;;;;;;6332627;22;20503;-77
2023/04/19 07:41:04;;;;;;;17.40;9.25;;;;;;;;;;6304407;22;20026;-77
2023/04/19 07:43:30;;;;;;;16.05;8.18;;;;;;;;;;6304500;22;20002;-77
2023/04/19 07:45:56;;;;;;;12.63;7.32;;;;;;;;;;6305434;22;20142;-77
2023/04/19 07:48:22;;;;;;;13.95;8.10;;;;;;;;;;6303709;22;20007;-78
2023/04/19 07:50:49;;;;;;;15.10;8.27;;;;;;;;;;6336532;22;20416;-78
2023/04/19 07:53:15;;;;;;;22.02;8.45;;;;;;;;;;6316634;22;20018;-79
2023/04/19 07:55:41;;;;;;;14.90;7.97;;;;;;;;;;6336743;22;20018;-76
2023/04/19 07:58:07;;;;;;;10.63;6.90;;;;;;;;;;6307150;22;20003;-80
2023/04/19 08:00:35;;;;;;;13.82;7.63;;;;;;;;;;6305024;22;20299;-80
2023/04/19 08:03:02;;;;;;;11.20;6.95;;;;;;;;;;6333299;22;20003;-80
2023/04/19 08:05:29;;;;;;;12.52;6.95;;;;;;;;;;6306725;22;20253;-78
2023/04/19 08:07:55;;;;;;;13.65;7.95;;;;;;;;;;6334073;22;20035;-77
2023/04/19 08:10:22;;;;;;;13.40;7.20;;;;;;;;;;6333179;22;20029;-78
2023/04/19 08:12:48;;;;;;;16.00;7.90;;;;;;;;;;6305264;22;20392;-79
2023/04/19 08:15:15;;;;;;;11.07;7.03;;;;;;;;;;6330918;22;20011;-79
2023/04/19 08:17:42;;;;;;;18.55;7.82;;;;;;;;;;6304037;22;20003;-79
2023/04/19 08:20:11;;;;;;;12.32;8.43;;;;;;;;;;6302810;22;20006;-78
2023/04/19 08:22:38;;;;;;;12.75;7.63;;;;;;;;;;6280576;22;20033;-78
2023/04/19 08:25:05;;;;;;;21.30;7.95;;;;;;;;;;6333948;22;20395;-78
2023/04/19 08:27:31;;;;;;;11.15;6.60;;;;;;;;;;6307890;22;20007;-77
2023/04/19 08:29:57;;;;;;;15.48;8.32;;;;;;;;;;6333529;22;20021;-78
2023/04/19 08:32:23;;;;;;;11.73;7.70;;;;;;;;;;6310422;22;20007;-79
2023/04/19 08:34:49;;;;;;;11.73;6.85;;;;;;;;;;6336222;22;20006;-79
2023/04/19 08:37:15;;;;;;;12.85;6.90;;;;;;;;;;6308287;22;20496;-78
2023/04/19 08:39:41;;;;;;;12.05;6.97;;;;;;;;;;6333771;22;20003;-77
2023/04/19 08:42:08;;;;;;;19.63;7.95;;;;;;;;;;6329716;22;19995;-78
2023/04/19 08:44:37;;;;;;;14.40;8.98;;;;;;;;;;6305526;22;19999;-78
2023/04/19 08:47:03;;;;;;;15.88;8.27;;;;;;;;;;6333150;22;20581;-79
2023/04/19 08:49:29;;;;;;;15.00;7.80;;;;;;;;;;6306954;22;20439;-78
2023/04/19 08:51:57;;;;;;;13.10;8.02;;;;;;;;;;6305106;22;20056;-77
2023/04/19 08:54:24;;;;;;;10.90;7.53;;;;;;;;;;6331537;22;20013;-78
2023/04/19 08:56:52;;;;;;;13.95;8.13;;;;;;;;;;6306863;22;20087;-77
2023/04/19 08:59:18;;;;;;;11.32;7.90;;;;;;;;;;6305196;22;20006;-78
2023/04/19 09:01:44;;;;;;;12.02;7.70;;;;;;;;;;6304845;22;19999;-78
2023/04/19 09:04:10;;;;;;;16.63;7.47;;;;;;;;;;6334472;22;20081;-78
2023/04/19 09:06:37;;;;;;;13.25;8.77;;;;;;;;;;6332951;22;20427;-78
2023/04/19 09:09:17;;;;;;;16.05;7.57;;;;;;;;;;6334838;22;20066;-78
2023/04/19 09:11:43;;;;;;;12.40;8.68;;;;;;;;;;6332060;22;20002;-78
2023/04/19 09:14:14;;;;;;;13.10;8.55;;;;;;;;;;6333411;22;20021;-78
2023/04/19 09:16:53;;;;;;;14.20;8.38;;;;;;;;;;6343452;22;20033;-82
2023/04/19 09:19:25;;;;;;;17.33;8.57;;;;;;;;;;6358193;22;20007;-82
2023/04/19 09:21:52;;;;;;;15.07;8.88;;;;;;;;;;6339151;22;20013;-77
2023/04/19 09:24:18;;;;;;;22.40;8.85;;;;;;;;;;6331143;22;20002;-78
2023/04/19 09:26:54;;;;;;;14.88;7.97;;;;;;;;;;6304873;22;20485;-78
2023/04/19 09:29:20;;;;;;;;;;;;;;;;;;6332781;22;20052;-78
2023/04/19 09:31:57;;;;;;;12.23;8.70;;;;;;;;;;6304976;22;19902;-78
2023/04/19 09:34:23;;;;;;;15.23;8.52;;;;;;;;;;6304965;22;20340;-78
2023/04/19 09:36:50;;;;;;;18.77;9.45;;;;;;;;;;6333573;22;20443;-78
2023/04/19 09:39:30;;;;;;;13.40;8.80;;;;;;;;;;6306257;22;19994;-78
2023/04/19 09:41:57;;;;;;;19.13;9.60;;;;;;;;;;6332387;22;20007;-78
2023/04/19 09:44:23;;;;;;;18.30;9.05;;;;;;;;;;6306067;22;20014;-78
2023/04/19 09:46:51;;;;;;;14.63;9.27;;;;;;;;;;6332068;22;20412;-78
2023/04/19 09:49:25;;;;;;;17.13;10.40;;;;;;;;;;6332957;22;20006;-78
2023/04/19 09:51:55;;;;;;;13.73;7.85;;;;;;;;;;6332887;22;20003;-78
2023/04/19 09:54:23;;;;;;;17.38;9.95;;;;;;;;;;6330616;22;20010;-79
2023/04/19 09:56:49;;;;;;;16.65;9.18;;;;;;;;;;6303217;22;20347;-78
2023/04/19 09:59:16;;;;;;;11.60;8.73;;;;;;;;;;6303309;22;20034;-78
2023/04/19 10:01:52;;;;;;;14.77;8.85;;;;;;;;;;6330609;22;20293;-78
2023/04/19 10:04:22;;;;;;;14.18;9.13;;;;;;;;;;6306547;22;20003;-79
2023/04/19 10:06:52;;;;;;;17.77;8.88;;;;;;;;;;6331265;22;20010;-78
2023/04/19 10:09:20;;;;;;;13.38;7.68;;;;;;;;;;6332213;22;20030;-79
2023/04/19 10:11:50;;;;;;;18.70;9.05;;;;;;;;;;6306114;22;20645;-78
2023/04/19 10:14:19;;;;;;;14.25;8.85;;;;;;;;;;6305981;22;20011;-78
2023/04/19 10:16:45;;;;;;;14.90;7.65;;;;;;;;;;6305257;22;20006;-78
2023/04/19 10:19:12;;;;;;;15.20;8.30;;;;;;;;;;6305766;22;20435;-78
2023/04/19 10:21:39;;;;;;;13.63;8.65;;;;;;;;;;6331390;22;20003;-79
2023/04/19 10:24:06;;;;;;;11.52;8.40;;;;;;;;;;6334640;22;20323;-78
2023/04/19 10:26:52;;;;;;;12.88;8.80;;;;;;;;;;6307045;22;20013;-79
2023/04/19 10:29:38;;;;;;;12.02;9.02;;;;;;;;;;6308329;22;20011;-78
2023/04/19 10:32:07;;;;;;;11.50;7.72;;;;;;;;;;6335315;22;20010;-78
2023/04/19 10:34:39;;;;;;;16.10;9.40;;;;;;;;;;6335604;22;20340;-77
2023/04/19 10:37:10;;;;;;;17.92;8.93;;;;;;;;;;6308084;22;20052;-78
2023/04/19 10:39:40;;;;;;;16.27;8.43;;;;;;;;;;6336631;22;19998;-78
2023/04/19 10:42:06;;;;;;;17.08;8.45;;;;;;;;;;6306068;22;20003;-78
2023/04/19 10:44:32;;;;;;;16.70;9.75;;;;;;;;;;6337327;22;20332;-78
2023/04/19 10:46:59;;;;;;;11.88;8.13;;;;;;;;;;6336618;22;20013;-79
2023/04/19 10:49:26;;;;;;;20.48;8.50;;;;;;;;;;6333195;22;20002;-81
2023/04/19 10:51:53;;;;;;;18.75;9.65;;;;;;;;;;6308063;22;20030;-78
2023/04/19 10:54:38;;;;;;;19.17;9.90;;;;;;;;;;6310640;22;20018;-87
2023/04/19 10:57:05;;;;;;;17.17;8.80;;;;;;;;;;6272128;22;20012;-80
2023/04/19 10:59:39;;;;;;;12.38;8.85;;;;;;;;;;6270389;22;20817;-78
2023/04/19 11:02:26;;;;;;;13.32;9.10;;;;;;;;;;6271926;22;20008;-79
2023/04/19 11:04:52;;;;;;;16.67;9.25;;;;;;;;;;6273612;22;20004;-82
2023/04/19 11:07:20;;;;;;;19.33;8.38;;;;;;;;;;6275551;22;19999;-77
2023/04/19 11:09:47;;;;;;;12.13;9.18;;;;;;;;;;6273724;22;20004;-83
2023/04/19 11:12:16;;;;;;;14.40;8.65;;;;;;;;;;6275154;22;20699;-80
2023/04/19 11:14:43;;;;;;;16.23;7.90;;;;;;;;;;6271989;22;20337;-84
2023/04/19 11:17:24;;;;;;;16.83;8.35;;;;;;;;;;6271075;22;20004;-82
2023/04/19 11:19:57;;;;;;;14.07;9.38;;;;;;;;;;6271083;22;20025;-81
2023/04/19 11:22:33;;;;;;;11.40;8.52;;;;;;;;;;6272883;22;20007;-83
2023/04/19 11:25:12;;;;;;;13.52;8.80;;;;;;;;;;6272898;22;19996;-86
2023/04/19 11:27:42;;;;;;;20.45;9.73;;;;;;;;;;6276185;22;20053;-80
2023/04/19 11:30:18;;;;;;;12.93;7.38;;;;;;;;;;6274223;22;20026;-90
2023/04/19 11:32:45;;;;;;;18.63;9.20;;;;;;;;;;6273352;22;19992;-79
2023/04/19 11:35:11;;;;;;;21.00;12.88;;;;;;;;;;6269412;22;20000;-78
2023/04/19 11:37:38;;;;;;;18.63;10.68;;;;;;;;;;6271713;22;20000;-78
2023/04/19 11:40:05;;;;;;;16.80;9.73;;;;;;;;;;6270989;22;19999;-79
2023/04/19 11:42:35;;;;;;;16.40;10.68;;;;;;;;;;6277816;22;20000;-86
2023/04/19 11:45:01;;;;;;;17.67;10.40;;;;;;;;;;6274300;22;20049;-86
2023/04/19 11:47:27;;;;;;;14.25;10.90;;;;;;;;;;6275081;22;19995;-85
2023/04/19 11:49:57;;;;;;;19.20;10.88;;;;;;;;;;6268484;22;20035;-80
2023/04/19 11:52:24;;;;;;;19.50;11.68;;;;;;;;;;6270538;22;20015;-80
2023/04/19 11:54:53;;;;;;;17.85;11.38;;;;;;;;;;6281992;22;20018;-79
2023/04/19 11:57:30;;;;;;;16.08;10.10;;;;;;;;;;6304514;22;20007;-79
2023/04/19 12:00:06;;;;;;;16.35;11.10;;;;;;;;;;6305447;22;20455;-78
2023/04/19 12:02:36;;;;;;;16.00;9.85;;;;;;;;;;6304614;22;20040;-79
2023/04/19 12:05:13;;;;;;;20.10;10.07;;;;;;;;;;6305147;22;20007;-79
2023/04/19 12:07:58;;;;;;;15.98;9.98;;;;;;;;;;6304509;22;20002;-78
2023/04/19 12:10:24;;;;;;;22.17;10.63;;;;;;;;;;6304232;22;19999;-78
2023/04/19 12:12:50;;;;;;;16.48;10.38;;;;;;;;;;6305213;22;20007;-78
2023/04/19 12:15:16;;;;;;;19.85;9.77;;;;;;;;;;6305784;22;20026;-79
2023/04/19 12:17:57;;;;;;;14.93;9.20;;;;;;;;;;6335624;22;20439;-82
2023/04/19 12:20:34;;;;;;;14.80;10.18;;;;;;;;;;6302862;22;20086;-78
2023/04/19 12:23:00;;;;;;;21.00;11.50;;;;;;;;;;6304065;22;20038;-78
2023/04/19 12:25:33;;;;;;;22.20;11.80;;;;;;;;;;6332868;22;20007;-80
2023/04/19 12:28:00;;;;;;;14.88;10.27;;;;;;;;;;6304766;22;20450;-81
2023/04/19 12:30:27;;;;;;;19.00;11.45;;;;;;;;;;6306955;22;20006;-78
2023/04/19 12:32:56;;;;;;;18.13;9.80;;;;;;;;;;6330328;22;20007;-78
2023/04/19 12:35:24;;;;;;;21.08;10.07;;;;;;;;;;6333385;22;20399;-76
2023/04/19 12:37:50;;;;;;;16.60;10.52;;;;;;;;;;6304016;22;20011;-78
2023/04/19 12:40:16;;;;;;;17.98;10.15;;;;;;;;;;6331318;22;19999;-75
2023/04/19 12:42:42;;;;;;;19.20;11.10;;;;;;;;;;6304512;22;20002;-78
2023/04/19 12:45:09;;;;;;;21.85;11.48;;;;;;;;;;6301974;22;20007;-78
2023/04/19 12:47:35;;;;;;;16.20;9.38;;;;;;;;;;6304829;22;20078;-75
2023/04/19 12:50:02;;;;;;;16.30;9.77;;;;;;;;;;6303032;22;20002;-76
2023/04/19 12:52:28;;;;;;;15.38;11.02;;;;;;;;;;6303627;22;20077;-77
2023/04/19 12:54:54;;;;;;;15.38;11.20;;;;;;;;;;6330586;22;20025;-77
2023/04/19 12:57:20;;;;;;;17.40;11.32;;;;;;;;;;6304349;22;20542;-77
2023/04/19 12:59:46;;;;;;;19.30;10.50;;;;;;;;;;6304127;22;20003;-77
2023/04/19 13:02:12;;;;;;;16.33;10.68;;;;;;;;;;6302567;22;20010;-79
2023/04/19 13:04:39;;;;;;;15.73;10.85;;;;;;;;;;6304508;22;20435;-78
2023/04/19 13:07:05;;;;;;;19.23;11.45;;;;;;;;;;6304730;22;20109;-77
2023/04/19 13:09:31;;;;;;;16.67;10.95;;;;;;;;;;6306745;22;20009;-77
2023/04/19 13:11:57;;;;;;;20.50;11.40;;;;;;;;;;6307157;22;20356;-77
2023/04/19 13:14:24;;;;;;;13.43;10.52;;;;;;;;;;6335493;22;20006;-80
2023/04/19 13:16:50;;;;;;;14.18;10.15;;;;;;;;;;6335365;22;20006;-77
2023/04/19 13:19:16;;;;;;;13.80;10.27;;;;;;;;;;6308034;22;20006;-76
2023/04/19 13:21:42;;;;;;;19.88;11.57;;;;;;;;;;6305283;22;20082;-77
2023/04/19 13:24:08;;;;;;;16.65;10.80;;;;;;;;;;6305534;22;20044;-77
2023/04/19 13:26:34;;;;;;;14.80;10.07;;;;;;;;;;6334818;22;20009;-80
2023/04/19 13:29:01;;;;;;;16.95;10.05;;;;;;;;;;6307957;22;20374;-79
2023/04/19 13:31:27;;;;;;;15.85;10.45;;;;;;;;;;6334242;22;20047;-78
2023/04/19 13:33:53;;;;;;;16.55;10.90;;;;;;;;;;6334490;22;20083;-78
2023/04/19 13:36:20;;;;;;;14.80;10.32;;;;;;;;;;6308464;22;20494;-78
2023/04/19 13:38:46;;;;;;;14.18;9.98;;;;;;;;;;6308711;22;20003;-77
2023/04/19 13:41:12;;;;;;;17.35;10.27;;;;;;;;;;6307751;22;20376;-76
2023/04/19 13:43:38;;;;;;;19.08;10.98;;;;;;;;;;6335533;22;20477;-78
2023/04/19 13:46:05;;;;;;;15.05;10.50;;;;;;;;;;6308495;22;20007;-81
2023/04/19 13:48:31;;;;;;;16.40;10.38;;;;;;;;;;6307604;22;20085;-76
2023/04/19 13:50:58;;;;;;;17.80;12.15;;;;;;;;;;6308781;22;20010;-78
2023/04/19 13:53:25;;;;;;;19.60;10.38;;;;;;;;;;6336577;22;20006;-77
2023/04/19 13:55:51;;;;;;;19.45;11.30;;;;;;;;;;6304427;22;20144;-80
2023/04/19 13:58:18;;;;;;;16.42;11.75;;;;;;;;;;6305498;22;20025;-77
2023/04/19 14:00:45;;;;;;;16.23;11.10;;;;;;;;;;6304533;22;20003;-78
2023/04/19 14:03:11;;;;;;;20.75;11.20;;;;;;;;;;6300467;22;20057;-77
2023/04/19 14:05:38;;;;;;;16.83;11.07;;;;;;;;;;6302789;22;20413;-80
2023/04/19 14:08:04;;;;;;;20.55;13.48;;;;;;;;;;6301808;22;20022;-81
2023/04/19 14:10:31;;;;;;;19.70;12.63;;;;;;;;;;6301256;22;20416;-79
2023/04/19 14:12:57;;;;;;;23.33;13.30;;;;;;;;;;6300211;22;20574;-77
2023/04/19 14:15:24;;;;;;;20.08;13.05;;;;;;;;;;6300343;22;20010;-81
2023/04/19 14:17:51;;;;;;;20.73;12.88;;;;;;;;;;6297746;22;20014;-78
2023/04/19 14:20:17;;;;;;;23.10;12.80;;;;;;;;;;6299476;22;20053;-80
2023/04/19 14:22:43;;;;;;;19.35;13.55;;;;;;;;;;6301515;22;20003;-80
2023/04/19 14:25:13;;;;;;;18.65;12.43;;;;;;;;;;6275545;22;20038;-78
2023/04/19 14:27:40;;;;;;;20.98;12.93;;;;;;;;;;6301890;22;20547;-78
2023/04/19 14:30:06;;;;;;;18.25;12.25;;;;;;;;;;6302200;22;20000;-78